createdAt,value
2017-06-22T00:01:00.646Z,1015.38
2017-06-22T00:02:09.540Z,1015.35
2017-06-22T00:03:18.432Z,1015.3
2017-06-22T00:04:27.518Z,1015.34
2017-06-22T00:05:36.732Z,1015.33
2017-06-22T00:06:45.946Z,1015.32
2017-06-22T00:07:55.164Z,1015.32
2017-06-22T00:09:04.054Z,1015.29
2017-06-22T00:10:13.790Z,1015.29
2017-06-22T00:11:23.005Z,1015.25
2017-06-22T00:12:31.898Z,1015.26
2017-06-22T00:13:40.784Z,1015.28
2017-06-22T00:14:49.672Z,1015.23
2017-06-22T00:15:58.818Z,1015.26
2017-06-22T00:17:08.360Z,1015.24
2017-06-22T00:18:17.253Z,1015.21
2017-06-22T00:19:26.464Z,1015.2
2017-06-22T00:20:35.686Z,1015.17
2017-06-22T00:21:44.624Z,1015.2
2017-06-22T00:22:53.515Z,1015.18
2017-06-22T00:24:03.405Z,1015.16
2017-06-22T00:25:12.620Z,1015.16
2017-06-22T00:26:21.512Z,1015.18
2017-06-22T00:27:30.725Z,1015.19
2017-06-22T00:28:40.266Z,1015.17
2017-06-22T00:29:49.158Z,1015.21
2017-06-22T00:30:58.042Z,1015.27
2017-06-22T00:32:06.938Z,1015.25
2017-06-22T00:33:15.979Z,1015.28
2017-06-22T00:34:24.870Z,1015.27
2017-06-22T00:35:33.756Z,1015.25
2017-06-22T00:36:42.644Z,1015.24
2017-06-22T00:37:51.540Z,1015.2
2017-06-22T00:39:00.755Z,1015.15
2017-06-22T00:40:09.968Z,1015.12
2017-06-22T00:41:19.193Z,1015.17
2017-06-22T00:42:28.084Z,1015.15
2017-06-22T00:43:36.976Z,1015.19
2017-06-22T00:44:46.117Z,1015.15
2017-06-22T00:45:55.327Z,1015.18
2017-06-22T00:47:04.218Z,1015.2
2017-06-22T00:48:13.107Z,1015.14
2017-06-22T00:49:22.007Z,1015.17
2017-06-22T00:50:31.317Z,1015.21
2017-06-22T00:51:40.205Z,1015.17
2017-06-22T00:52:49.413Z,1015.17
2017-06-22T00:53:58.301Z,1015.16
2017-06-22T00:55:07.216Z,1015.13
2017-06-22T00:56:16.260Z,1015.1
2017-06-22T00:57:25.150Z,1015.12
2017-06-22T00:58:34.047Z,1015.1
2017-06-22T00:59:42.941Z,1015.12
2017-06-22T01:00:51.832Z,1015.13
2017-06-22T01:02:00.970Z,1015.08
2017-06-22T01:03:10.183Z,1015.06
2017-06-22T01:04:19.074Z,1015.03
2017-06-22T01:05:27.961Z,1015.05
2017-06-22T01:06:36.855Z,1015.06
2017-06-22T01:07:46.376Z,1015.03
2017-06-22T01:08:55.597Z,1015.01
2017-06-22T01:10:04.486Z,1015.01
2017-06-22T01:11:13.708Z,1014.99
2017-06-22T01:12:22.594Z,1014.92
2017-06-22T01:13:31.531Z,1014.95
2017-06-22T01:14:40.747Z,1014.96
2017-06-22T01:15:49.692Z,1014.97
2017-06-22T01:16:58.591Z,1015.03
2017-06-22T01:18:07.487Z,1015.1
2017-06-22T01:19:16.526Z,1015.07
2017-06-22T01:20:25.414Z,1015.11
2017-06-22T01:21:34.308Z,1015.11
2017-06-22T01:22:43.529Z,1015.06
2017-06-22T01:23:52.419Z,1015.06
2017-06-22T01:25:01.733Z,1015.03
2017-06-22T01:26:10.627Z,1015.03
2017-06-22T01:27:19.516Z,1015.05
2017-06-22T01:28:28.402Z,1015.03
2017-06-22T01:29:37.298Z,1014.99
2017-06-22T01:30:46.513Z,1014.98
2017-06-22T01:31:55.409Z,1014.96
2017-06-22T01:33:04.297Z,1014.94
2017-06-22T01:34:13.184Z,1014.94
2017-06-22T01:35:22.400Z,1014.97
2017-06-22T01:36:31.391Z,1015
2017-06-22T01:37:40.282Z,1014.95
2017-06-22T01:38:49.497Z,1014.92
2017-06-22T01:39:58.382Z,1014.88
2017-06-22T01:41:07.275Z,1014.87
2017-06-22T01:42:16.319Z,1014.86
2017-06-22T01:43:25.208Z,1014.88
2017-06-22T01:44:34.094Z,1014.9
2017-06-22T01:45:42.979Z,1014.78
2017-06-22T01:46:51.870Z,1014.8
2017-06-22T01:48:00.861Z,1014.81
2017-06-22T01:49:09.751Z,1014.81
2017-06-22T01:50:18.643Z,1014.81
2017-06-22T01:51:27.857Z,1014.77
2017-06-22T01:52:36.746Z,1014.77
2017-06-22T01:53:45.686Z,1014.79
2017-06-22T01:54:54.575Z,1014.77
2017-06-22T01:56:03.787Z,1014.74
2017-06-22T01:57:13.007Z,1014.7
2017-06-22T01:58:22.222Z,1014.73
2017-06-22T01:59:31.484Z,1014.72
2017-06-22T02:00:40.372Z,1014.74
2017-06-22T02:01:49.586Z,1014.7
2017-06-22T02:02:58.481Z,1014.72
2017-06-22T02:04:07.370Z,1014.69
2017-06-22T02:05:16.408Z,1014.7
2017-06-22T02:06:25.297Z,1014.73
2017-06-22T02:07:34.186Z,1014.7
2017-06-22T02:08:43.078Z,1014.7
2017-06-22T02:09:51.965Z,1014.64
2017-06-22T02:11:01.155Z,1014.65
2017-06-22T02:12:10.720Z,1014.61
2017-06-22T02:13:19.617Z,1014.56
2017-06-22T02:14:28.826Z,1014.57
2017-06-22T02:15:37.763Z,1014.54
2017-06-22T02:16:47.130Z,1014.56
2017-06-22T02:17:56.020Z,1014.53
2017-06-22T02:19:04.911Z,1014.58
2017-06-22T02:20:13.804Z,1014.54
2017-06-22T02:21:22.696Z,1014.48
2017-06-22T02:22:31.687Z,1014.47
2017-06-22T02:23:40.578Z,1014.48
2017-06-22T02:24:49.469Z,1014.5
2017-06-22T02:25:58.354Z,1014.48
2017-06-22T02:27:07.566Z,1014.44
2017-06-22T02:28:16.780Z,1014.43
2017-06-22T02:29:25.674Z,1014.4
2017-06-22T02:30:34.563Z,1014.38
2017-06-22T02:31:43.772Z,1014.4
2017-06-22T02:32:52.988Z,1014.43
2017-06-22T02:34:02.036Z,1014.38
2017-06-22T02:35:11.572Z,1014.36
2017-06-22T02:36:20.791Z,1014.32
2017-06-22T02:37:29.684Z,1014.27
2017-06-22T02:38:38.576Z,1014.28
2017-06-22T02:39:48.092Z,1014.19
2017-06-22T02:40:56.988Z,1014.23
2017-06-22T02:42:05.878Z,1014.22
2017-06-22T02:43:15.413Z,1014.22
2017-06-22T02:44:24.305Z,1014.2
2017-06-22T02:45:33.993Z,1014.17
2017-06-22T02:46:43.533Z,1014.09
2017-06-22T02:47:52.424Z,1014.11
2017-06-22T02:49:01.967Z,1014.07
2017-06-22T02:50:10.860Z,1014.06
2017-06-22T02:51:19.902Z,1014.06
2017-06-22T02:52:28.795Z,1014.06
2017-06-22T02:53:37.681Z,1014.07
2017-06-22T02:54:46.575Z,1014.06
2017-06-22T02:55:55.789Z,1014.09
2017-06-22T02:57:04.929Z,1014.05
2017-06-22T02:58:13.820Z,1014
2017-06-22T02:59:23.029Z,1014.04
2017-06-22T03:00:32.252Z,1014.01
2017-06-22T03:01:41.144Z,1013.98
2017-06-22T03:02:50.513Z,1014.01
2017-06-22T03:03:59.728Z,1013.98
2017-06-22T03:05:08.618Z,1014.01
2017-06-22T03:06:17.510Z,1014.02
2017-06-22T03:07:26.398Z,1014.04
2017-06-22T03:08:35.335Z,1014
2017-06-22T03:09:44.225Z,1013.99
2017-06-22T03:10:53.112Z,1014.01
2017-06-22T03:12:02.673Z,1014
2017-06-22T03:13:12.213Z,1013.98
2017-06-22T03:14:21.107Z,1013.98
2017-06-22T03:15:29.996Z,1013.97
2017-06-22T03:16:39.219Z,1014.02
2017-06-22T03:17:48.431Z,1013.96
2017-06-22T03:18:57.974Z,1013.91
2017-06-22T03:20:07.016Z,1013.81
2017-06-22T03:21:16.230Z,1013.75
2017-06-22T03:22:25.118Z,1013.68
2017-06-22T03:23:34.035Z,1013.69
2017-06-22T03:24:43.250Z,1013.64
2017-06-22T03:25:52.564Z,1013.65
2017-06-22T03:27:01.792Z,1013.68
2017-06-22T03:28:11.008Z,1013.67
2017-06-22T03:29:20.222Z,1013.69
2017-06-22T03:30:29.111Z,1013.71
2017-06-22T03:31:38.104Z,1013.65
2017-06-22T03:32:46.990Z,1013.64
2017-06-22T03:33:55.876Z,1013.58
2017-06-22T03:35:04.818Z,1013.5
2017-06-22T03:36:13.708Z,1013.47
2017-06-22T03:37:22.697Z,1013.47
2017-06-22T03:38:31.910Z,1013.47
2017-06-22T03:39:40.800Z,1013.47
2017-06-22T03:40:49.694Z,1013.49
2017-06-22T03:41:58.590Z,1013.5
2017-06-22T03:43:07.582Z,1013.48
2017-06-22T03:44:16.468Z,1013.51
2017-06-22T03:45:25.358Z,1013.51
2017-06-22T03:46:34.576Z,1013.43
2017-06-22T03:47:43.793Z,1013.41
2017-06-22T03:48:53.056Z,1013.4
2017-06-22T03:50:01.942Z,1013.35
2017-06-22T03:51:10.833Z,1013.27
2017-06-22T03:52:19.723Z,1013.28
2017-06-22T03:53:28.939Z,1013.21
2017-06-22T03:54:38.647Z,1013.15
2017-06-22T03:55:47.532Z,1013.1
2017-06-22T03:56:56.418Z,1013.04
2017-06-22T03:58:05.306Z,1013.04
2017-06-22T03:59:14.550Z,1013.05
2017-06-22T04:00:23.864Z,1013.12
2017-06-22T04:01:32.755Z,1013.18
2017-06-22T04:02:41.643Z,1013.16
2017-06-22T04:03:50.532Z,1013.17
2017-06-22T04:04:59.416Z,1013.22
2017-06-22T04:06:08.305Z,1013.23
2017-06-22T04:07:17.517Z,1013.22
2017-06-22T04:08:26.406Z,1013.24
2017-06-22T04:09:35.949Z,1013.23
2017-06-22T04:10:44.838Z,1013.14
2017-06-22T04:11:53.876Z,1013.12
2017-06-22T04:13:02.767Z,1013.09
2017-06-22T04:14:11.656Z,1013.1
2017-06-22T04:15:20.546Z,1013.08
2017-06-22T04:16:29.767Z,1013.04
2017-06-22T04:17:38.808Z,1013.04
2017-06-22T04:18:47.698Z,1013.04
2017-06-22T04:19:56.590Z,1013.03
2017-06-22T04:21:05.477Z,1012.98
2017-06-22T04:22:14.366Z,1012.91
2017-06-22T04:23:23.579Z,1012.89
2017-06-22T04:24:32.471Z,1012.9
2017-06-22T04:25:41.682Z,1012.9
2017-06-22T04:26:50.897Z,1012.9
2017-06-22T04:28:00.111Z,1012.87
2017-06-22T04:29:09.475Z,1012.83
2017-06-22T04:30:18.689Z,1012.85
2017-06-22T04:31:27.600Z,1012.89
2017-06-22T04:32:36.815Z,1012.86
2017-06-22T04:33:45.703Z,1012.79
2017-06-22T04:34:54.640Z,1012.8
2017-06-22T04:36:03.529Z,1012.85
2017-06-22T04:37:12.420Z,1012.85
2017-06-22T04:38:21.310Z,1012.81
2017-06-22T04:39:30.198Z,1012.79
2017-06-22T04:40:39.562Z,1012.81
2017-06-22T04:41:48.773Z,1012.84
2017-06-22T04:42:57.985Z,1012.85
2017-06-22T04:44:06.876Z,1012.78
2017-06-22T04:45:15.768Z,1012.67
2017-06-22T04:46:25.140Z,1012.44
2017-06-22T04:47:34.032Z,1012.32
2017-06-22T04:48:42.918Z,1012.15
2017-06-22T04:49:52.163Z,1012.07
2017-06-22T04:51:01.382Z,1011.99
2017-06-22T04:52:10.426Z,1012.03
2017-06-22T04:53:19.318Z,1012.1
2017-06-22T04:54:28.212Z,1012.07
2017-06-22T04:55:37.106Z,1012.13
2017-06-22T04:56:45.995Z,1012.2
2017-06-22T04:57:55.035Z,1012.22
2017-06-22T04:59:03.973Z,1012.23
2017-06-22T05:00:13.839Z,1012.17
2017-06-22T05:01:22.731Z,1012.15
2017-06-22T05:02:31.946Z,1012.1
2017-06-22T05:03:41.269Z,1012.05
2017-06-22T05:04:50.483Z,1012.08
2017-06-22T05:05:59.373Z,1012.05
2017-06-22T05:07:08.272Z,1012.09
2017-06-22T05:08:17.484Z,1012.1
2017-06-22T05:09:27.070Z,1012.02
2017-06-22T05:10:36.291Z,1012.09
2017-06-22T05:11:45.507Z,1012.12
2017-06-22T05:12:54.399Z,1012.14
2017-06-22T05:14:03.286Z,1012.16
2017-06-22T05:15:12.478Z,1012.17
2017-06-22T05:16:21.368Z,1012.12
2017-06-22T05:17:30.585Z,1012.15
2017-06-22T05:18:39.474Z,1012.18
2017-06-22T05:19:48.688Z,1012.11
2017-06-22T05:20:58.631Z,1012.13
2017-06-22T05:22:07.853Z,1012.16
2017-06-22T05:23:16.746Z,1012.14
2017-06-22T05:24:25.963Z,1012.13
2017-06-22T05:25:34.854Z,1012.09
2017-06-22T05:26:43.895Z,1012.14
2017-06-22T05:27:53.112Z,1012.13
2017-06-22T05:29:02.332Z,1012.1
2017-06-22T05:30:11.221Z,1012.09
2017-06-22T05:31:20.114Z,1012.06
2017-06-22T05:32:29.580Z,1011.99
2017-06-22T05:33:38.795Z,1011.99
2017-06-22T05:34:47.686Z,1011.99
2017-06-22T05:35:56.904Z,1011.97
2017-06-22T05:37:05.801Z,1011.97
2017-06-22T05:38:14.843Z,1012
2017-06-22T05:39:24.060Z,1012.01
2017-06-22T05:40:32.955Z,1012.01
2017-06-22T05:41:41.849Z,1012.03
2017-06-22T05:42:50.752Z,1012.05
2017-06-22T05:43:59.691Z,1012.07
2017-06-22T05:45:08.914Z,1012.05
2017-06-22T05:46:17.943Z,1012.08
2017-06-22T05:47:27.164Z,1012.1
2017-06-22T05:48:36.383Z,1012.12
2017-06-22T05:49:45.320Z,1012.21
2017-06-22T05:50:54.212Z,1012.19
2017-06-22T05:52:03.106Z,1012.23
2017-06-22T05:53:11.997Z,1012.25
2017-06-22T05:54:20.889Z,1012.28
2017-06-22T05:55:30.203Z,1012.2
2017-06-22T05:56:39.099Z,1012.18
2017-06-22T05:57:48.313Z,1012.2
2017-06-22T05:58:57.203Z,1012.18
2017-06-22T06:00:06.098Z,1012.14
2017-06-22T06:01:15.468Z,1012.13
2017-06-22T06:02:24.685Z,1012.1
2017-06-22T06:03:33.905Z,1012.06
2017-06-22T06:04:42.794Z,1012.05
2017-06-22T06:05:51.688Z,1012.07
2017-06-22T06:07:00.736Z,1012.06
2017-06-22T06:08:09.956Z,1012.06
2017-06-22T06:09:18.846Z,1012.03
2017-06-22T06:10:27.739Z,1012.04
2017-06-22T06:11:36.634Z,1012.05
2017-06-22T06:12:46.003Z,1012.1
2017-06-22T06:13:54.902Z,1012.07
2017-06-22T06:15:04.126Z,1012.13
2017-06-22T06:16:13.023Z,1012.13
2017-06-22T06:17:21.926Z,1012.15
2017-06-22T06:18:30.938Z,1012.2
2017-06-22T06:19:40.182Z,1012.15
2017-06-22T06:20:49.138Z,1012.18
2017-06-22T06:21:58.031Z,1012.17
2017-06-22T06:23:07.248Z,1012.19
2017-06-22T06:24:16.993Z,1012.15
2017-06-22T06:25:25.883Z,1012.07
2017-06-22T06:26:34.777Z,1012.08
2017-06-22T06:27:43.673Z,1012.09
2017-06-22T06:28:52.890Z,1012.09
2017-06-22T06:30:02.455Z,1012.06
2017-06-22T06:31:11.729Z,1012.01
2017-06-22T06:32:20.622Z,1011.99
2017-06-22T06:33:30.165Z,1012.01
2017-06-22T06:34:39.384Z,1011.96
2017-06-22T06:35:48.334Z,1011.97
2017-06-22T06:36:57.229Z,1011.98
2017-06-22T06:38:06.119Z,1011.96
2017-06-22T06:39:15.013Z,1011.95
2017-06-22T06:40:23.914Z,1011.93
2017-06-22T06:41:32.855Z,1011.86
2017-06-22T06:42:41.752Z,1011.88
2017-06-22T06:43:50.970Z,1011.87
2017-06-22T06:44:59.866Z,1011.81
2017-06-22T06:46:09.106Z,1011.81
2017-06-22T06:47:18.206Z,1011.74
2017-06-22T06:48:27.101Z,1011.68
2017-06-22T06:49:35.995Z,1011.59
2017-06-22T06:50:44.888Z,1011.59
2017-06-22T06:51:53.829Z,1011.56
2017-06-22T06:53:03.200Z,1011.58
2017-06-22T06:54:12.113Z,1011.51
2017-06-22T06:55:21.005Z,1011.45
2017-06-22T06:56:30.222Z,1011.4
2017-06-22T06:57:39.473Z,1011.36
2017-06-22T06:58:48.672Z,1011.33
2017-06-22T06:59:57.568Z,1011.3
2017-06-22T07:01:06.788Z,1011.27
2017-06-22T07:02:16.008Z,1011.27
2017-06-22T07:03:24.901Z,1011.29
2017-06-22T07:04:34.270Z,1011.23
2017-06-22T07:05:43.490Z,1011.3
2017-06-22T07:06:52.383Z,1011.29
2017-06-22T07:08:01.603Z,1011.21
2017-06-22T07:09:10.823Z,1011.21
2017-06-22T07:10:19.819Z,1011.18
2017-06-22T07:11:29.035Z,1011.14
2017-06-22T07:12:37.931Z,1011.13
2017-06-22T07:13:46.825Z,1011.09
2017-06-22T07:14:55.722Z,1011.08
2017-06-22T07:16:05.041Z,1011.07
2017-06-22T07:17:13.936Z,1011.05
2017-06-22T07:18:23.155Z,1011.03
2017-06-22T07:19:32.047Z,1011.04
2017-06-22T07:20:41.268Z,1011.03
2017-06-22T07:21:50.411Z,1011.02
2017-06-22T07:22:59.308Z,1010.99
2017-06-22T07:24:08.538Z,1010.95
2017-06-22T07:25:17.436Z,1010.92
2017-06-22T07:26:26.336Z,1010.91
2017-06-22T07:27:35.528Z,1010.94
2017-06-22T07:28:44.746Z,1010.96
2017-06-22T07:29:53.965Z,1010.94
2017-06-22T07:31:03.179Z,1010.91
2017-06-22T07:32:12.074Z,1010.85
2017-06-22T07:33:20.970Z,1010.86
2017-06-22T07:34:30.192Z,1010.82
2017-06-22T07:35:39.411Z,1010.8
2017-06-22T07:36:48.302Z,1010.75
2017-06-22T07:37:57.522Z,1010.79
2017-06-22T07:39:06.565Z,1010.8
2017-06-22T07:40:15.469Z,1010.74
2017-06-22T07:41:25.343Z,1010.69
2017-06-22T07:42:34.891Z,1010.68
2017-06-22T07:43:43.783Z,1010.65
2017-06-22T07:44:53.150Z,1010.67
2017-06-22T07:46:02.043Z,1010.64
2017-06-22T07:47:10.940Z,1010.58
2017-06-22T07:48:19.841Z,1010.54
2017-06-22T07:49:29.057Z,1010.5
2017-06-22T07:50:38.154Z,1010.48
2017-06-22T07:51:47.051Z,1010.51
2017-06-22T07:52:55.948Z,1010.47
2017-06-22T07:54:05.169Z,1010.41
2017-06-22T07:55:14.064Z,1010.38
2017-06-22T07:56:23.110Z,1010.37
2017-06-22T07:57:32.011Z,1010.31
2017-06-22T07:58:40.926Z,1010.3
2017-06-22T07:59:50.148Z,1010.25
2017-06-22T08:00:59.042Z,1010.25
2017-06-22T08:02:07.997Z,1010.24
2017-06-22T08:03:16.896Z,1010.22
2017-06-22T08:04:25.805Z,1010.16
2017-06-22T08:05:34.704Z,1010.1
2017-06-22T08:06:43.926Z,1010.14
2017-06-22T08:07:52.972Z,1010.07
2017-06-22T08:09:01.871Z,1010
2017-06-22T08:10:10.786Z,1009.98
2017-06-22T08:11:19.720Z,1009.96
2017-06-22T08:12:28.615Z,1009.99
2017-06-22T08:13:37.761Z,1009.98
2017-06-22T08:14:46.983Z,1010
2017-06-22T08:15:55.879Z,1010
2017-06-22T08:17:04.787Z,1010.02
2017-06-22T08:18:13.686Z,1010.05
2017-06-22T08:19:23.058Z,1010.02
2017-06-22T08:20:31.955Z,1010
2017-06-22T08:21:40.856Z,1009.92
2017-06-22T08:22:50.083Z,1009.92
2017-06-22T08:23:58.981Z,1009.86
2017-06-22T08:25:08.352Z,1009.89
2017-06-22T08:26:17.576Z,1009.88
2017-06-22T08:27:26.474Z,1009.89
2017-06-22T08:28:35.372Z,1009.87
2017-06-22T08:29:44.598Z,1009.85
2017-06-22T08:30:53.818Z,1009.78
2017-06-22T08:32:03.046Z,1009.82
2017-06-22T08:33:12.275Z,1009.79
2017-06-22T08:34:21.180Z,1009.68
2017-06-22T08:35:30.399Z,1009.58
2017-06-22T08:36:39.345Z,1009.57
2017-06-22T08:37:48.240Z,1009.49
2017-06-22T08:38:57.140Z,1009.48
2017-06-22T08:40:06.367Z,1009.4
2017-06-22T08:41:15.266Z,1009.39
2017-06-22T08:42:24.219Z,1009.32
2017-06-22T08:43:33.768Z,1009.26
2017-06-22T08:44:42.993Z,1009.27
2017-06-22T08:45:51.889Z,1009.28
2017-06-22T08:47:01.115Z,1009.31
2017-06-22T08:48:10.162Z,1009.28
2017-06-22T08:49:19.063Z,1009.3
2017-06-22T08:50:27.958Z,1009.33
2017-06-22T08:51:37.183Z,1009.4
2017-06-22T08:52:46.407Z,1009.47
2017-06-22T08:53:55.452Z,1009.5
2017-06-22T08:55:04.354Z,1009.48
2017-06-22T08:56:13.267Z,1009.45
2017-06-22T08:57:22.171Z,1009.42
2017-06-22T08:58:31.402Z,1009.43
2017-06-22T08:59:40.607Z,1009.35
2017-06-22T09:00:49.531Z,1009.29
2017-06-22T09:01:58.434Z,1009.3
2017-06-22T09:03:07.658Z,1009.25
2017-06-22T09:04:16.571Z,1009.29
2017-06-22T09:05:25.633Z,1009.25
2017-06-22T09:06:34.531Z,1009.19
2017-06-22T09:07:43.430Z,1009.21
2017-06-22T09:08:52.355Z,1009.13
2017-06-22T09:10:01.254Z,1009.13
2017-06-22T09:11:10.527Z,1009.1
2017-06-22T09:12:19.749Z,1009.12
2017-06-22T09:13:28.980Z,1009.05
2017-06-22T09:14:38.204Z,1009.03
2017-06-22T09:15:47.102Z,1008.99
2017-06-22T09:16:56.402Z,1008.98
2017-06-22T09:18:05.302Z,1008.97
2017-06-22T09:19:14.206Z,1008.9
2017-06-22T09:20:23.764Z,1008.83
2017-06-22T09:21:32.989Z,1008.82
2017-06-22T09:22:42.368Z,1008.82
2017-06-22T09:23:51.268Z,1008.76
2017-06-22T09:25:00.165Z,1008.73
2017-06-22T09:26:09.394Z,1008.69
2017-06-22T09:27:18.291Z,1008.62
2017-06-22T09:28:27.296Z,1008.67
2017-06-22T09:29:36.193Z,1008.62
2017-06-22T09:30:45.101Z,1008.63
2017-06-22T09:31:54.004Z,1008.66
2017-06-22T09:33:02.905Z,1008.65
2017-06-22T09:34:12.131Z,1008.66
2017-06-22T09:35:22.253Z,1008.68
2017-06-22T09:36:31.805Z,1008.67
2017-06-22T09:37:40.704Z,1008.7
2017-06-22T09:38:49.926Z,1008.74
2017-06-22T09:39:59.190Z,1008.73
2017-06-22T09:41:08.097Z,1008.69
2017-06-22T09:42:17.649Z,1008.7
2017-06-22T09:43:26.885Z,1008.74
2017-06-22T09:44:36.109Z,1008.75
2017-06-22T09:45:45.336Z,1008.8
2017-06-22T09:46:54.235Z,1008.79
2017-06-22T09:48:03.463Z,1008.65
2017-06-22T09:49:12.692Z,1008.63
2017-06-22T09:50:21.594Z,1008.7
2017-06-22T09:51:31.154Z,1008.76
2017-06-22T09:52:40.383Z,1008.79
2017-06-22T09:53:49.293Z,1008.92
2017-06-22T09:54:58.518Z,1009.1
2017-06-22T09:56:07.427Z,1009.26
2017-06-22T09:57:16.327Z,1009.5
2017-06-22T09:58:25.227Z,1009.75
2017-06-22T09:59:34.143Z,1009.97
2017-06-22T10:00:43.378Z,1010.04
2017-06-22T10:01:52.283Z,1010.22
2017-06-22T10:03:01.513Z,1010.42
2017-06-22T10:04:10.718Z,1010.48
2017-06-22T10:05:20.172Z,1010.47
2017-06-22T10:06:29.173Z,1010.45
2017-06-22T10:07:38.110Z,1010.33
2017-06-22T10:08:47.020Z,1010.31
2017-06-22T10:09:56.240Z,1010.4
2017-06-22T10:11:05.389Z,1010.52
2017-06-22T10:12:14.294Z,1010.72
2017-06-22T10:13:23.525Z,1010.78
2017-06-22T10:14:32.755Z,1010.97
2017-06-22T10:15:41.659Z,1011
2017-06-22T10:16:50.643Z,1011.08
2017-06-22T10:17:59.540Z,1010.98
2017-06-22T10:19:08.439Z,1010.89
2017-06-22T10:20:17.338Z,1010.74
2017-06-22T10:21:26.236Z,1010.59
2017-06-22T10:22:35.465Z,1010.64
2017-06-22T10:23:44.366Z,1010.73
2017-06-22T10:24:53.589Z,1010.8
2017-06-22T10:26:02.830Z,1010.61
2017-06-22T10:27:12.054Z,1010.55
2017-06-22T10:28:21.207Z,1010.55
2017-06-22T10:29:30.432Z,1010.49
2017-06-22T10:30:39.658Z,1010.41
2017-06-22T10:31:48.881Z,1010.42
2017-06-22T10:32:57.778Z,1010.31
2017-06-22T10:34:07.633Z,1010.26
2017-06-22T10:35:16.857Z,1010.33
2017-06-22T10:36:25.756Z,1010.29
2017-06-22T10:37:34.654Z,1010.28
2017-06-22T10:38:43.552Z,1010.3
2017-06-22T10:39:52.610Z,1010.28
2017-06-22T10:41:01.509Z,1010.26
2017-06-22T10:42:10.436Z,1010.25
2017-06-22T10:43:19.672Z,1010.22
2017-06-22T10:44:28.574Z,1010.25
2017-06-22T10:45:37.895Z,1010.27
2017-06-22T10:46:46.812Z,1010.23
2017-06-22T10:47:56.359Z,1010.19
2017-06-22T10:49:05.581Z,1010.25
2017-06-22T10:50:14.480Z,1010.22
2017-06-22T10:51:23.628Z,1010.15
2017-06-22T10:52:32.527Z,1010.12
2017-06-22T10:53:41.436Z,1009.99
2017-06-22T10:54:50.713Z,1010.01
2017-06-22T10:55:59.614Z,1009.99
2017-06-22T10:57:09.462Z,1009.95
2017-06-22T10:58:18.357Z,1010.02
2017-06-22T10:59:27.252Z,1009.97
2017-06-22T11:00:36.149Z,1009.96
2017-06-22T11:01:45.058Z,1009.96
2017-06-22T11:02:54.817Z,1009.87
2017-06-22T11:04:03.713Z,1009.86
2017-06-22T11:05:12.939Z,1009.77
2017-06-22T11:06:21.837Z,1009.8
2017-06-22T11:07:30.737Z,1009.78
2017-06-22T11:08:39.638Z,1009.74
2017-06-22T11:09:48.863Z,1009.76
2017-06-22T11:10:58.087Z,1009.78
2017-06-22T11:12:06.990Z,1009.74
2017-06-22T11:13:16.243Z,1009.71
2017-06-22T11:14:25.294Z,1009.69
2017-06-22T11:15:34.195Z,1009.58
2017-06-22T11:16:43.422Z,1009.57
2017-06-22T11:17:52.650Z,1009.54
2017-06-22T11:19:01.871Z,1009.51
2017-06-22T11:20:10.870Z,1009.55
2017-06-22T11:21:20.097Z,1009.54
2017-06-22T11:22:28.999Z,1009.55
2017-06-22T11:23:37.896Z,1009.51
2017-06-22T11:24:46.794Z,1009.53
2017-06-22T11:25:56.170Z,1009.49
2017-06-22T11:27:05.069Z,1009.43
2017-06-22T11:28:13.967Z,1009.51
2017-06-22T11:29:23.194Z,1009.51
2017-06-22T11:30:32.743Z,1009.52
2017-06-22T11:31:41.944Z,1009.5
2017-06-22T11:32:50.840Z,1009.41
2017-06-22T11:33:59.737Z,1009.36
2017-06-22T11:35:08.960Z,1009.37
2017-06-22T11:36:17.859Z,1009.32
2017-06-22T11:37:27.456Z,1009.26
2017-06-22T11:38:36.362Z,1009.33
2017-06-22T11:39:45.587Z,1009.34
2017-06-22T11:40:54.487Z,1009.33
2017-06-22T11:42:03.386Z,1009.34
2017-06-22T11:43:12.760Z,1009.31
2017-06-22T11:44:21.660Z,1009.35
2017-06-22T11:45:30.563Z,1009.35
2017-06-22T11:46:39.471Z,1009.35
2017-06-22T11:47:48.696Z,1009.37
2017-06-22T11:48:57.946Z,1009.35
2017-06-22T11:50:06.846Z,1009.33
2017-06-22T11:51:16.074Z,1009.34
2017-06-22T11:52:25.626Z,1009.33
2017-06-22T11:53:34.534Z,1009.3
2017-06-22T11:54:43.640Z,1009.26
2017-06-22T11:55:52.541Z,1009.26
2017-06-22T11:57:01.767Z,1009.29
2017-06-22T11:58:10.998Z,1009.21
2017-06-22T11:59:19.895Z,1009.22
2017-06-22T12:00:29.270Z,1009.19
2017-06-22T12:01:38.825Z,1009.18
2017-06-22T12:02:47.723Z,1009.16
2017-06-22T12:03:56.649Z,1009.16
2017-06-22T12:05:05.555Z,1009.15
2017-06-22T12:06:14.609Z,1009.15
2017-06-22T12:07:23.514Z,1009.04
2017-06-22T12:08:32.744Z,1009.1
2017-06-22T12:09:41.971Z,1009.09
2017-06-22T12:10:51.204Z,1009.06
2017-06-22T12:12:00.157Z,1009.11
2017-06-22T12:13:09.387Z,1009.12
2017-06-22T12:14:18.293Z,1009.1
2017-06-22T12:15:27.529Z,1009.12
2017-06-22T12:16:36.769Z,1009.09
2017-06-22T12:17:46.106Z,1009.08
2017-06-22T12:18:55.334Z,1009.08
2017-06-22T12:20:04.564Z,1009.08
2017-06-22T12:21:13.472Z,1009.07
2017-06-22T12:22:22.378Z,1009
2017-06-22T12:23:31.435Z,1009.03
2017-06-22T12:24:40.390Z,1008.94
2017-06-22T12:25:49.629Z,1008.93
2017-06-22T12:26:58.539Z,1008.91
2017-06-22T12:28:08.110Z,1008.88
2017-06-22T12:29:17.119Z,1008.92
2017-06-22T12:30:26.422Z,1008.86
2017-06-22T12:31:35.398Z,1008.85
2017-06-22T12:32:44.672Z,1008.84
2017-06-22T12:33:53.926Z,1008.81
2017-06-22T12:35:03.145Z,1008.84
2017-06-22T12:36:12.382Z,1008.8
2017-06-22T12:37:21.289Z,1008.8
2017-06-22T12:38:30.202Z,1008.75
2017-06-22T12:39:39.111Z,1008.79
2017-06-22T12:40:48.187Z,1008.78
2017-06-22T12:41:57.116Z,1008.64
2017-06-22T12:43:06.725Z,1008.62
2017-06-22T12:44:15.968Z,1008.64
2017-06-22T12:45:25.205Z,1008.68
2017-06-22T12:46:34.413Z,1008.66
2017-06-22T12:47:43.332Z,1008.73
2017-06-22T12:48:52.561Z,1008.67
2017-06-22T12:50:01.812Z,1008.75
2017-06-22T12:51:10.735Z,1008.63
2017-06-22T12:52:20.020Z,1008.62
2017-06-22T12:53:28.925Z,1008.61
2017-06-22T12:54:37.832Z,1008.6
2017-06-22T12:55:46.739Z,1008.58
2017-06-22T12:56:55.657Z,1008.57
2017-06-22T12:58:04.626Z,1008.57
2017-06-22T12:59:13.854Z,1008.52
2017-06-22T13:00:23.090Z,1008.5
2017-06-22T13:01:31.997Z,1008.5
2017-06-22T13:02:40.902Z,1008.49
2017-06-22T13:03:50.106Z,1008.6
2017-06-22T13:04:59.007Z,1008.56
2017-06-22T13:06:07.916Z,1008.59
2017-06-22T13:07:16.820Z,1008.55
2017-06-22T13:08:26.053Z,1008.6
2017-06-22T13:09:34.982Z,1008.49
2017-06-22T13:10:43.920Z,1008.6
2017-06-22T13:11:52.834Z,1008.62
2017-06-22T13:13:02.066Z,1008.55
2017-06-22T13:14:11.009Z,1008.54
2017-06-22T13:15:20.170Z,1008.54
2017-06-22T13:16:29.119Z,1008.47
2017-06-22T13:17:38.033Z,1008.41
2017-06-22T13:18:47.631Z,1008.4
2017-06-22T13:19:56.872Z,1008.29
2017-06-22T13:21:05.835Z,1008.28
2017-06-22T13:22:14.745Z,1008.23
2017-06-22T13:23:23.657Z,1008.19
2017-06-22T13:24:32.894Z,1008.2
2017-06-22T13:25:41.811Z,1008.31
2017-06-22T13:26:50.867Z,1008.34
2017-06-22T13:27:59.778Z,1008.3
2017-06-22T13:29:09.057Z,1008.33
2017-06-22T13:30:18.611Z,1008.31
2017-06-22T13:31:27.517Z,1008.22
2017-06-22T13:32:36.576Z,1008.22
2017-06-22T13:33:45.487Z,1008.17
2017-06-22T13:34:54.395Z,1008.13
2017-06-22T13:36:03.630Z,1008.1
2017-06-22T13:37:12.539Z,1008.19
2017-06-22T13:38:21.547Z,1008.05
2017-06-22T13:39:30.458Z,1008.02
2017-06-22T13:40:39.694Z,1008.03
2017-06-22T13:41:48.929Z,1008.05
2017-06-22T13:42:57.838Z,1008.05
2017-06-22T13:44:06.944Z,1008.06
2017-06-22T13:45:16.194Z,1008.09
2017-06-22T13:46:25.102Z,1008.06
2017-06-22T13:47:34.338Z,1008.04
2017-06-22T13:48:43.244Z,1008.09
2017-06-22T13:49:52.670Z,1007.97
2017-06-22T13:51:01.588Z,1007.93
2017-06-22T13:52:10.496Z,1007.76
2017-06-22T13:53:19.401Z,1007.8
2017-06-22T13:54:28.311Z,1007.86
2017-06-22T13:55:37.320Z,1007.79
2017-06-22T13:56:46.228Z,1007.81
2017-06-22T13:57:55.462Z,1007.75
2017-06-22T13:59:05.023Z,1007.8
2017-06-22T14:00:13.930Z,1007.74